Portada
METAR-TAF:

METAR-TAF

Aeroports :

Coffs Harbour, Austràlia

latitud: 30-19-12S, longitud: 153-07-00E, altitud: 5 m

Observació

L'informe es va fer fa 27 minuts, a les 21:00 UTC
Vent 14 kt del Sud-Oest
Temperatura 18°C
Humitat 68%
Pressió 1019 hPa
Visibilitat 10 km o més

METAR: YCFS 262100Z AUTO 22014KT 9999 // NCD 18/12 Q1019

Hora: 07:27 (21:27 UTC)

Pronòstic

L'informe es va fer fa 4 hores i 31 minuts, a les 16:56 UTC
Pronòstic vàlid del 26 a les 18 UTC al 27 a les 18 UTC
Vent 14 kt del Sud-Oest
Visibilitat 10 km o més
Cel ennuvolat a una alçada de 2500 ft
A partir de les 26 a les 2100 UTC
Vent 14 kt del Sud/Sud-Oest
Visibilitat 10 km o més
Núvols disperses a una alçada de 3000 ft
A partir de les 27 a les 1200 UTC
Vent 7 kt del Sud-Oest
Visibilitat 10 km o més
sense núvols per sota de 1500 mi sense presència de cumulonimbus.

TAF: YCFS 261656Z 2618/2718 22014KT 9999 BKN025 FM262100 21014KT 9999 SCT030 FM271200 23007KT CAVOK

Observacions i pronòstics meteorològics de més de 4000 aeroports (METAR i TAF).

Les estacions disponibles són els punts grocs i vermells al mapa.

Posi el ratolí al punt desitjat per veure el nom de l'estació.

Feu clic per veure les observacions i els pronòstics meteorològics.

Per canviar el mapa: feu clic els botons verds amb una creu de color negre per apropar; al botó verd amb un guió per allunyar la imatge; o en les fletxes verdes per a mapes adjacents.


METAR-TAF: